sensor_id;sensor_type;location;lat;lon;timestamp;pressure;altitude;pressure_sealevel;temperature;humidity
74230;BME280;62589;12.568;99.958;2023-04-16T00:00:01;100587.53;;;35.40;48.00
74230;BME280;62589;12.568;99.958;2023-04-16T00:02:29;100584.31;;;35.41;48.05
74230;BME280;62589;12.568;99.958;2023-04-16T00:04:55;100574.75;;;35.42;47.38
74230;BME280;62589;12.568;99.958;2023-04-16T00:07:22;100586.72;;;35.43;47.16
74230;BME280;62589;12.568;99.958;2023-04-16T00:09:49;100590.69;;;35.42;46.70
74230;BME280;62589;12.568;99.958;2023-04-16T00:12:16;100602.66;;;35.46;46.45
74230;BME280;62589;12.568;99.958;2023-04-16T00:14:42;100607.03;;;35.47;45.60
74230;BME280;62589;12.568;99.958;2023-04-16T00:17:09;100601.44;;;35.47;45.45
74230;BME280;62589;12.568;99.958;2023-04-16T00:19:35;100604.22;;;35.47;45.44
74230;BME280;62589;12.568;99.958;2023-04-16T00:22:02;100599.81;;;35.50;45.36
74230;BME280;62589;12.568;99.958;2023-04-16T00:24:28;100615.78;;;35.49;45.51
74230;BME280;62589;12.568;99.958;2023-04-16T00:26:54;100616.56;;;35.53;45.30
74230;BME280;62589;12.568;99.958;2023-04-16T00:29:22;100629.31;;;35.54;45.32
74230;BME280;62589;12.568;99.958;2023-04-16T00:31:48;100627.28;;;35.55;45.48
74230;BME280;62589;12.568;99.958;2023-04-16T00:34:15;100631.25;;;35.57;45.61
74230;BME280;62589;12.568;99.958;2023-04-16T00:36:41;100625.28;;;35.59;45.40
74230;BME280;62589;12.568;99.958;2023-04-16T00:39:07;100636.06;;;35.57;44.98
74230;BME280;62589;12.568;99.958;2023-04-16T00:41:34;100645.59;;;35.59;45.13
74230;BME280;62589;12.568;99.958;2023-04-16T00:44:00;100650.38;;;35.62;45.27
74230;BME280;62589;12.568;99.958;2023-04-16T00:46:26;100651.59;;;35.61;44.90
74230;BME280;62589;12.568;99.958;2023-04-16T00:48:54;100661.56;;;35.59;44.65
74230;BME280;62589;12.568;99.958;2023-04-16T00:51:21;100661.56;;;35.59;44.51
74230;BME280;62589;12.568;99.958;2023-04-16T00:53:47;100671.13;;;35.61;44.58
74230;BME280;62589;12.568;99.958;2023-04-16T00:56:14;100687.88;;;35.61;45.14
74230;BME280;62589;12.568;99.958;2023-04-16T00:58:41;100686.28;;;35.64;44.95
74230;BME280;62589;12.568;99.958;2023-04-16T01:01:07;100692.66;;;35.64;45.11
74230;BME280;62589;12.568;99.958;2023-04-16T01:03:39;100687.47;;;35.66;45.61
74230;BME280;62589;12.568;99.958;2023-04-16T01:06:06;100699.00;;;35.72;45.28
74230;BME280;62589;12.568;99.958;2023-04-16T01:08:32;100706.97;;;35.73;44.91
74230;BME280;62589;12.568;99.958;2023-04-16T01:10:59;100706.97;;;35.73;44.97
74230;BME280;62589;12.568;99.958;2023-04-16T01:13:25;100714.91;;;35.78;44.73
74230;BME280;62589;12.568;99.958;2023-04-16T01:15:52;100722.91;;;35.80;44.79
74230;BME280;62589;12.568;99.958;2023-04-16T01:18:20;100723.66;;;35.84;44.88
74230;BME280;62589;12.568;99.958;2023-04-16T01:20:48;100721.25;;;35.86;44.92
74230;BME280;62589;12.568;99.958;2023-04-16T01:23:15;100726.81;;;35.90;44.98
74230;BME280;62589;12.568;99.958;2023-04-16T01:25:44;100744.38;;;35.94;44.25
74230;BME280;62589;12.568;99.958;2023-04-16T01:28:10;100748.38;;;35.89;43.74
74230;BME280;62589;12.568;99.958;2023-04-16T01:30:37;100744.38;;;35.90;44.08
74230;BME280;62589;12.568;99.958;2023-04-16T01:33:04;100745.16;;;35.94;44.06
74230;BME280;62589;12.568;99.958;2023-04-16T01:35:31;100754.34;;;35.91;44.14
74230;BME280;62589;12.568;99.958;2023-04-16T01:37:57;100753.53;;;35.94;44.06
74230;BME280;62589;12.568;99.958;2023-04-16T01:40:23;100754.34;;;35.95;43.95
74230;BME280;62589;12.568;99.958;2023-04-16T01:42:50;100756.28;;;35.98;44.33
74230;BME280;62589;12.568;99.958;2023-04-16T01:45:16;100765.84;;;36.00;43.82
74230;BME280;62589;12.568;99.958;2023-04-16T01:47:43;100763.47;;;35.99;43.77
74230;BME280;62589;12.568;99.958;2023-04-16T01:50:09;100777.41;;;36.02;43.30
74230;BME280;62589;12.568;99.958;2023-04-16T01:52:36;100776.19;;;36.07;43.75
74230;BME280;62589;12.568;99.958;2023-04-16T01:55:03;100778.16;;;36.10;43.63
74230;BME280;62589;12.568;99.958;2023-04-16T01:57:29;100782.16;;;36.12;43.57
74230;BME280;62589;12.568;99.958;2023-04-16T01:59:56;100781.75;;;36.10;42.99
74230;BME280;62589;12.568;99.958;2023-04-16T02:02:22;100788.06;;;36.18;42.85
74230;BME280;62589;12.568;99.958;2023-04-16T02:04:52;100787.31;;;36.14;42.61
74230;BME280;62589;12.568;99.958;2023-04-16T02:07:19;100782.91;;;36.17;42.58
74230;BME280;62589;12.568;99.958;2023-04-16T02:09:45;100788.44;;;36.24;42.85
74230;BME280;62589;12.568;99.958;2023-04-16T02:12:12;100778.47;;;36.19;43.13
74230;BME280;62589;12.568;99.958;2023-04-16T02:14:38;100777.66;;;36.22;43.69
74230;BME280;62589;12.568;99.958;2023-04-16T02:17:04;100779.25;;;36.27;43.50
74230;BME280;62589;12.568;99.958;2023-04-16T02:19:31;100775.22;;;36.31;42.55
74230;BME280;62589;12.568;99.958;2023-04-16T02:21:57;100791.97;;;36.35;42.19
74230;BME280;62589;12.568;99.958;2023-04-16T02:24:26;100797.16;;;36.36;42.94
74230;BME280;62589;12.568;99.958;2023-04-16T02:26:53;100797.91;;;36.40;42.88
74230;BME280;62589;12.568;99.958;2023-04-16T02:29:19;100800.78;;;36.33;42.00
74230;BME280;62589;12.568;99.958;2023-04-16T02:31:47;100801.19;;;36.32;42.24
74230;BME280;62589;12.568;99.958;2023-04-16T02:34:14;100793.94;;;36.38;42.50
74230;BME280;62589;12.568;99.958;2023-04-16T02:36:40;100791.06;;;36.45;42.53
74230;BME280;62589;12.568;99.958;2023-04-16T02:39:07;100791.06;;;36.48;42.00
74230;BME280;62589;12.568;99.958;2023-04-16T02:41:33;100786.34;;;36.38;41.57
74230;BME280;62589;12.568;99.958;2023-04-16T02:44:00;100782.69;;;36.45;41.33
74230;BME280;62589;12.568;99.958;2023-04-16T02:46:26;100781.84;;;36.52;41.31
74230;BME280;62589;12.568;99.958;2023-04-16T02:48:53;100783.44;;;36.53;40.99
74230;BME280;62589;12.568;99.958;2023-04-16T02:51:20;100777.00;;;36.56;41.56
74230;BME280;62589;12.568;99.958;2023-04-16T02:53:46;100774.63;;;36.54;42.45
74230;BME280;62589;12.568;99.958;2023-04-16T02:56:12;100783.75;;;36.58;42.65
74230;BME280;62589;12.568;99.958;2023-04-16T02:58:39;100776.16;;;36.59;42.52
74230;BME280;62589;12.568;99.958;2023-04-16T03:01:06;100782.22;;;36.54;42.93
74230;BME280;62589;12.568;99.958;2023-04-16T03:03:32;100775.84;;;36.53;42.86
74230;BME280;62589;12.568;99.958;2023-04-16T03:05:58;100774.94;;;36.60;43.24
74230;BME280;62589;12.568;99.958;2023-04-16T03:08:25;100786.50;;;36.65;43.72
74230;BME280;62589;12.568;99.958;2023-04-16T03:10:52;100788.06;;;36.73;45.34
74230;BME280;62589;12.568;99.958;2023-04-16T03:13:18;100790.81;;;36.77;46.96
74230;BME280;62589;12.568;99.958;2023-04-16T03:15:50;100789.25;;;36.72;47.39
74230;BME280;62589;12.568;99.958;2023-04-16T03:18:16;100773.25;;;36.76;47.76
74230;BME280;62589;12.568;99.958;2023-04-16T03:20:43;100786.06;;;36.74;47.97
74230;BME280;62589;12.568;99.958;2023-04-16T03:23:09;100773.09;;;36.87;47.76
74230;BME280;62589;12.568;99.958;2023-04-16T03:25:35;100778.28;;;36.89;48.70
74230;BME280;62589;12.568;99.958;2023-04-16T03:28:02;100781.84;;;36.93;48.74
74230;BME280;62589;12.568;99.958;2023-04-16T03:30:28;100781.75;;;36.59;49.04
74230;BME280;62589;12.568;99.958;2023-04-16T03:32:55;100782.03;;;36.75;48.83
74230;BME280;62589;12.568;99.958;2023-04-16T03:35:21;100781.25;;;36.74;48.68
74230;BME280;62589;12.568;99.958;2023-04-16T03:52:53;100768.91;;;36.65;48.88
74230;BME280;62589;12.568;99.958;2023-04-16T03:55:20;100774.84;;;36.70;48.39
74230;BME280;62589;12.568;99.958;2023-04-16T03:57:46;100769.13;;;36.85;47.26
74230;BME280;62589;12.568;99.958;2023-04-16T04:00:13;100761.84;;;36.94;46.89
74230;BME280;62589;12.568;99.958;2023-04-16T04:02:39;100763.41;;;36.99;44.06
74230;BME280;62589;12.568;99.958;2023-04-16T04:05:06;100764.13;;;37.03;43.94
74230;BME280;62589;12.568;99.958;2023-04-16T04:07:33;100757.06;;;36.91;43.47
74230;BME280;62589;12.568;99.958;2023-04-16T04:09:59;100756.06;;;37.08;43.20
74230;BME280;62589;12.568;99.958;2023-04-16T04:12:26;100737.31;;;37.05;42.31
74230;BME280;62589;12.568;99.958;2023-04-16T04:14:52;100739.28;;;37.08;42.55
74230;BME280;62589;12.568;99.958;2023-04-16T04:17:19;100739.19;;;37.19;42.30
74230;BME280;62589;12.568;99.958;2023-04-16T04:19:45;100735.59;;;37.15;42.34
74230;BME280;62589;12.568;99.958;2023-04-16T04:22:11;100734.06;;;37.10;42.30
74230;BME280;62589;12.568;99.958;2023-04-16T04:24:38;100729.56;;;37.20;41.63
74230;BME280;62589;12.568;99.958;2023-04-16T04:27:04;100731.59;;;37.20;41.71
74230;BME280;62589;12.568;99.958;2023-04-16T04:29:31;100734.19;;;37.34;41.25
74230;BME280;62589;12.568;99.958;2023-04-16T04:31:57;100720.22;;;37.30;41.40
74230;BME280;62589;12.568;99.958;2023-04-16T04:34:24;100718.84;;;37.42;41.02
74230;BME280;62589;12.568;99.958;2023-04-16T04:36:50;100711.31;;;37.39;40.67
74230;BME280;62589;12.568;99.958;2023-04-16T04:39:17;100704.75;;;37.49;40.63
74230;BME280;62589;12.568;99.958;2023-04-16T04:41:46;100716.66;;;37.57;40.37
74230;BME280;62589;12.568;99.958;2023-04-16T04:44:13;100703.31;;;37.64;40.62
74230;BME280;62589;12.568;99.958;2023-04-16T04:46:39;100690.50;;;37.67;40.26
74230;BME280;62589;12.568;99.958;2023-04-16T04:49:06;100688.03;;;37.72;40.05
74230;BME280;62589;12.568;99.958;2023-04-16T04:51:32;100683.16;;;37.76;39.51
74230;BME280;62589;12.568;99.958;2023-04-16T04:53:59;100677.66;;;37.69;42.60
74230;BME280;62589;12.568;99.958;2023-04-16T04:56:25;100679.44;;;37.83;42.58
74230;BME280;62589;12.568;99.958;2023-04-16T04:58:52;100680.72;;;37.78;42.13
74230;BME280;62589;12.568;99.958;2023-04-16T05:01:18;100668.09;;;37.67;42.34
74230;BME280;62589;12.568;99.958;2023-04-16T05:03:45;100658.06;;;37.69;42.28
74230;BME280;62589;12.568;99.958;2023-04-16T05:06:11;100656.09;;;37.66;42.87
74230;BME280;62589;12.568;99.958;2023-04-16T05:08:37;100648.84;;;37.69;43.27
74230;BME280;62589;12.568;99.958;2023-04-16T05:11:04;100639.97;;;37.74;42.89
74230;BME280;62589;12.568;99.958;2023-04-16T05:13:30;100639.91;;;37.77;42.56
74230;BME280;62589;12.568;99.958;2023-04-16T05:15:57;100632.47;;;37.67;42.85
74230;BME280;62589;12.568;99.958;2023-04-16T05:18:23;100621.09;;;37.78;42.11
74230;BME280;62589;12.568;99.958;2023-04-16T05:20:50;100604.03;;;37.92;41.91
74230;BME280;62589;12.568;99.958;2023-04-16T05:23:16;100605.97;;;37.95;40.49
74230;BME280;62589;12.568;99.958;2023-04-16T05:25:42;100598.34;;;37.96;38.18
74230;BME280;62589;12.568;99.958;2023-04-16T05:28:09;100598.66;;;38.01;37.75
74230;BME280;62589;12.568;99.958;2023-04-16T05:30:35;100593.06;;;38.01;36.95
74230;BME280;62589;12.568;99.958;2023-04-16T05:33:02;100574.56;;;38.04;37.57
74230;BME280;62589;12.568;99.958;2023-04-16T05:35:28;100565.19;;;38.14;36.92
74230;BME280;62589;12.568;99.958;2023-04-16T05:37:55;100568.72;;;38.18;37.01
74230;BME280;62589;12.568;99.958;2023-04-16T05:40:21;100562.94;;;38.05;37.23
74230;BME280;62589;12.568;99.958;2023-04-16T05:42:47;100564.94;;;38.05;36.98
74230;BME280;62589;12.568;99.958;2023-04-16T05:45:14;100558.75;;;38.17;37.10
74230;BME280;62589;12.568;99.958;2023-04-16T05:47:40;100553.50;;;38.19;37.92
74230;BME280;62589;12.568;99.958;2023-04-16T05:50:07;100551.25;;;38.30;38.26
74230;BME280;62589;12.568;99.958;2023-04-16T05:52:33;100550.88;;;38.28;38.65
74230;BME280;62589;12.568;99.958;2023-04-16T05:55:00;100535.59;;;38.33;38.74
74230;BME280;62589;12.568;99.958;2023-04-16T05:57:29;100537.97;;;38.14;39.14
74230;BME280;62589;12.568;99.958;2023-04-16T05:59:56;100523.16;;;38.14;39.05
74230;BME280;62589;12.568;99.958;2023-04-16T06:02:22;100517.41;;;38.21;39.74
74230;BME280;62589;12.568;99.958;2023-04-16T06:04:49;100510.22;;;38.20;39.95
74230;BME280;62589;12.568;99.958;2023-04-16T06:07:15;100508.47;;;38.26;39.73
74230;BME280;62589;12.568;99.958;2023-04-16T06:09:41;100508.56;;;38.23;40.30
74230;BME280;62589;12.568;99.958;2023-04-16T06:12:08;100502.88;;;38.26;40.08
74230;BME280;62589;12.568;99.958;2023-04-16T06:14:35;100502.44;;;38.28;42.19
74230;BME280;62589;12.568;99.958;2023-04-16T06:17:01;100502.53;;;38.24;42.17
74230;BME280;62589;12.568;99.958;2023-04-16T06:19:28;100501.28;;;38.25;42.83
74230;BME280;62589;12.568;99.958;2023-04-16T06:21:54;100509.50;;;38.16;42.78
74230;BME280;62589;12.568;99.958;2023-04-16T06:24:22;100513.63;;;38.08;42.86
74230;BME280;62589;12.568;99.958;2023-04-16T06:26:48;100496.75;;;37.92;44.01
74230;BME280;62589;12.568;99.958;2023-04-16T06:29:15;100483.38;;;37.99;43.60
74230;BME280;62589;12.568;99.958;2023-04-16T06:31:41;100482.00;;;37.88;43.57
74230;BME280;62589;12.568;99.958;2023-04-16T06:34:08;100487.25;;;37.86;43.83
74230;BME280;62589;12.568;99.958;2023-04-16T06:36:34;100473.31;;;37.82;43.54
74230;BME280;62589;12.568;99.958;2023-04-16T06:39:02;100480.84;;;38.05;43.28
74230;BME280;62589;12.568;99.958;2023-04-16T06:41:29;100469.44;;;37.96;43.37
74230;BME280;62589;12.568;99.958;2023-04-16T06:43:56;100471.81;;;37.97;44.20
74230;BME280;62589;12.568;99.958;2023-04-16T06:46:22;100463.47;;;37.94;43.93
74230;BME280;62589;12.568;99.958;2023-04-16T06:48:48;100459.50;;;37.91;43.53
74230;BME280;62589;12.568;99.958;2023-04-16T06:51:15;100463.97;;;37.89;43.12
74230;BME280;62589;12.568;99.958;2023-04-16T06:53:41;100451.09;;;37.71;44.25
74230;BME280;62589;12.568;99.958;2023-04-16T06:56:08;100440.13;;;37.80;44.52
74230;BME280;62589;12.568;99.958;2023-04-16T06:58:35;100439.97;;;37.88;43.96
74230;BME280;62589;12.568;99.958;2023-04-16T07:01:01;100434.22;;;37.75;45.01
74230;BME280;62589;12.568;99.958;2023-04-16T07:03:27;100426.00;;;37.64;44.95
74230;BME280;62589;12.568;99.958;2023-04-16T07:05:54;100424.00;;;37.65;44.33
74230;BME280;62589;12.568;99.958;2023-04-16T07:08:20;100416.00;;;37.63;45.16
74230;BME280;62589;12.568;99.958;2023-04-16T07:10:47;100419.13;;;37.69;45.44
74230;BME280;62589;12.568;99.958;2023-04-16T07:13:13;100405.50;;;37.71;45.49
74230;BME280;62589;12.568;99.958;2023-04-16T07:15:40;100428.00;;;37.64;45.46
74230;BME280;62589;12.568;99.958;2023-04-16T07:18:06;100405.88;;;37.49;45.44
74230;BME280;62589;12.568;99.958;2023-04-16T07:20:32;100409.34;;;37.57;45.68
74230;BME280;62589;12.568;99.958;2023-04-16T07:22:59;100401.31;;;37.59;45.40
74230;BME280;62589;12.568;99.958;2023-04-16T07:25:25;100402.72;;;37.47;45.55
74230;BME280;62589;12.568;99.958;2023-04-16T07:27:52;100403.22;;;37.62;45.36
74230;BME280;62589;12.568;99.958;2023-04-16T07:30:18;100397.59;;;37.66;44.86
74230;BME280;62589;12.568;99.958;2023-04-16T07:32:45;100392.47;;;37.61;45.20
74230;BME280;62589;12.568;99.958;2023-04-16T07:35:11;100403.75;;;37.57;45.55
74230;BME280;62589;12.568;99.958;2023-04-16T07:37:38;100390.72;;;37.47;45.70
74230;BME280;62589;12.568;99.958;2023-04-16T07:40:05;100388.34;;;37.45;45.98
74230;BME280;62589;12.568;99.958;2023-04-16T07:42:31;100383.19;;;37.44;45.79
74230;BME280;62589;12.568;99.958;2023-04-16T07:44:58;100381.16;;;37.44;46.15
74230;BME280;62589;12.568;99.958;2023-04-16T07:47:24;100368.75;;;37.45;46.17
74230;BME280;62589;12.568;99.958;2023-04-16T07:49:52;100365.81;;;37.53;45.94
74230;BME280;62589;12.568;99.958;2023-04-16T07:52:18;100365.88;;;37.49;45.72
74230;BME280;62589;12.568;99.958;2023-04-16T07:54:45;100364.47;;;37.41;45.68
74230;BME280;62589;12.568;99.958;2023-04-16T07:57:11;100361.50;;;37.48;46.58
74230;BME280;62589;12.568;99.958;2023-04-16T07:59:38;100359.50;;;37.48;46.44
74230;BME280;62589;12.568;99.958;2023-04-16T08:02:05;100351.81;;;37.33;46.75
74230;BME280;62589;12.568;99.958;2023-04-16T08:04:33;100350.47;;;37.41;46.74
74230;BME280;62589;12.568;99.958;2023-04-16T08:07:00;100338.59;;;37.53;46.63
74230;BME280;62589;12.568;99.958;2023-04-16T08:09:26;100334.44;;;37.61;45.77
74230;BME280;62589;12.568;99.958;2023-04-16T08:11:53;100334.44;;;37.61;46.09
74230;BME280;62589;12.568;99.958;2023-04-16T08:14:20;100334.94;;;37.56;46.41
74230;BME280;62589;12.568;99.958;2023-04-16T08:16:46;100329.56;;;37.65;46.20
74230;BME280;62589;12.568;99.958;2023-04-16T08:19:13;100323.97;;;37.65;46.01
74230;BME280;62589;12.568;99.958;2023-04-16T08:21:39;100311.13;;;37.64;45.94
74230;BME280;62589;12.568;99.958;2023-04-16T08:24:06;100311.38;;;37.54;46.45
74230;BME280;62589;12.568;99.958;2023-04-16T08:26:33;100308.72;;;37.66;46.11
74230;BME280;62589;12.568;99.958;2023-04-16T08:28:59;100307.94;;;37.66;45.72
74230;BME280;62589;12.568;99.958;2023-04-16T08:31:25;100301.56;;;37.65;45.56
74230;BME280;62589;12.568;99.958;2023-04-16T08:33:52;100312.91;;;37.58;45.56
74230;BME280;62589;12.568;99.958;2023-04-16T08:36:18;100297.47;;;37.70;45.63
74230;BME280;62589;12.568;99.958;2023-04-16T08:38:45;100297.75;;;37.75;46.28
74230;BME280;62589;12.568;99.958;2023-04-16T08:41:12;100289.19;;;37.82;45.89
74230;BME280;62589;12.568;99.958;2023-04-16T08:43:43;100291.63;;;37.80;46.20
74230;BME280;62589;12.568;99.958;2023-04-16T08:46:10;100291.63;;;37.80;46.52
74230;BME280;62589;12.568;99.958;2023-04-16T08:48:37;100288.41;;;37.82;46.08
74230;BME280;62589;12.568;99.958;2023-04-16T08:51:09;100277.34;;;37.75;46.05
74230;BME280;62589;12.568;99.958;2023-04-16T08:53:53;100285.50;;;37.86;46.25
74230;BME280;62589;12.568;99.958;2023-04-16T08:56:25;100283.84;;;37.88;46.04
74230;BME280;62589;12.568;99.958;2023-04-16T08:58:53;100272.28;;;37.86;46.82
74230;BME280;62589;12.568;99.958;2023-04-16T09:01:20;100283.41;;;37.90;46.38
74230;BME280;62589;12.568;99.958;2023-04-16T09:03:48;100283.03;;;37.88;46.79
74230;BME280;62589;12.568;99.958;2023-04-16T09:06:15;100274.72;;;37.84;46.54
74230;BME280;62589;12.568;99.958;2023-04-16T09:08:43;100272.16;;;37.73;47.06
74230;BME280;62589;12.568;99.958;2023-04-16T09:11:16;100264.47;;;37.77;47.46
74230;BME280;62589;12.568;99.958;2023-04-16T09:13:45;100270.22;;;37.70;47.18
74230;BME280;62589;12.568;99.958;2023-04-16T09:16:12;100270.09;;;37.77;46.01
74230;BME280;62589;12.568;99.958;2023-04-16T09:18:39;100276.41;;;37.81;44.95
74230;BME280;62589;12.568;99.958;2023-04-16T09:21:09;100268.94;;;37.75;41.35
74230;BME280;62589;12.568;99.958;2023-04-16T09:23:39;100266.78;;;37.82;40.39
74230;BME280;62589;12.568;99.958;2023-04-16T09:26:05;100268.31;;;37.83;40.04
74230;BME280;62589;12.568;99.958;2023-04-16T09:28:44;100269.38;;;37.90;39.29
74230;BME280;62589;12.568;99.958;2023-04-16T09:31:16;100274.22;;;37.89;39.24
74230;BME280;62589;12.568;99.958;2023-04-16T09:36:25;100262.91;;;37.93;39.25
74230;BME280;62589;12.568;99.958;2023-04-16T09:38:54;100264.78;;;37.99;39.31
74230;BME280;62589;12.568;99.958;2023-04-16T09:41:26;100275.00;;;38.06;38.94
74230;BME280;62589;12.568;99.958;2023-04-16T09:44:01;100269.41;;;38.06;38.65
74230;BME280;62589;12.568;99.958;2023-04-16T09:46:34;100264.22;;;38.04;38.48
74230;BME280;62589;12.568;99.958;2023-04-16T09:49:13;100266.81;;;38.15;38.47
74230;BME280;62589;12.568;99.958;2023-04-16T09:51:41;100273.13;;;38.19;38.56
74230;BME280;62589;12.568;99.958;2023-04-16T09:54:08;100263.94;;;38.19;38.45
74230;BME280;62589;12.568;99.958;2023-04-16T09:56:42;100264.38;;;38.17;38.42
74230;BME280;62589;12.568;99.958;2023-04-16T09:59:22;100255.44;;;38.22;39.02
74230;BME280;62589;12.568;99.958;2023-04-16T10:01:50;100263.06;;;38.22;38.86
74230;BME280;62589;12.568;99.958;2023-04-16T10:04:18;100266.13;;;38.27;38.90
74230;BME280;62589;12.568;99.958;2023-04-16T10:07:05;100266.47;;;38.29;38.46
74230;BME280;62589;12.568;99.958;2023-04-16T10:09:36;100263.31;;;38.27;38.85
74230;BME280;62589;12.568;99.958;2023-04-16T10:12:02;100267.69;;;38.28;39.05
74230;BME280;62589;12.568;99.958;2023-04-16T10:14:29;100269.19;;;38.33;39.32
74230;BME280;62589;12.568;99.958;2023-04-16T10:16:56;100267.34;;;38.26;39.05
74230;BME280;62589;12.568;99.958;2023-04-16T10:19:24;100269.72;;;38.28;38.89
74230;BME280;62589;12.568;99.958;2023-04-16T10:21:51;100271.72;;;38.27;39.20
74230;BME280;62589;12.568;99.958;2023-04-16T10:24:18;100277.44;;;38.24;39.48
74230;BME280;62589;12.568;99.958;2023-04-16T10:26:46;100274.63;;;38.24;39.14
74230;BME280;62589;12.568;99.958;2023-04-16T10:29:13;100280.25;;;38.24;39.77
74230;BME280;62589;12.568;99.958;2023-04-16T10:31:39;100276.66;;;38.23;39.82
74230;BME280;62589;12.568;99.958;2023-04-16T10:34:08;100282.59;;;38.25;39.55
74230;BME280;62589;12.568;99.958;2023-04-16T10:36:38;100278.22;;;38.24;39.62
74230;BME280;62589;12.568;99.958;2023-04-16T10:39:10;100288.97;;;38.26;39.93
74230;BME280;62589;12.568;99.958;2023-04-16T10:41:37;100292.13;;;38.28;39.77
74230;BME280;62589;12.568;99.958;2023-04-16T10:44:08;100284.16;;;38.26;39.18
74230;BME280;62589;12.568;99.958;2023-04-16T10:46:43;100286.97;;;38.26;39.42
74230;BME280;62589;12.568;99.958;2023-04-16T10:49:28;100284.88;;;38.30;38.89
74230;BME280;62589;12.568;99.958;2023-04-16T10:52:00;100295.06;;;38.24;38.99
74230;BME280;62589;12.568;99.958;2023-04-16T10:54:29;100295.28;;;38.30;39.37
74230;BME280;62589;12.568;99.958;2023-04-16T10:56:58;100294.16;;;38.27;38.54
74230;BME280;62589;12.568;99.958;2023-04-16T10:59:29;100288.19;;;38.25;38.46
74230;BME280;62589;12.568;99.958;2023-04-16T11:01:58;100301.34;;;38.28;38.88
74230;BME280;62589;12.568;99.958;2023-04-16T11:04:29;100295.38;;;38.26;38.90
74230;BME280;62589;12.568;99.958;2023-04-16T11:10:04;100308.97;;;38.28;38.45
74230;BME280;62589;12.568;99.958;2023-04-16T11:12:41;100306.16;;;38.28;37.33
74230;BME280;62589;12.568;99.958;2023-04-16T11:15:12;100309.84;;;38.25;36.76
74230;BME280;62589;12.568;99.958;2023-04-16T11:17:44;100305.91;;;38.22;36.64
74230;BME280;62589;12.568;99.958;2023-04-16T11:20:22;100316.34;;;38.22;36.31
74230;BME280;62589;12.568;99.958;2023-04-16T11:22:53;100310.81;;;38.18;36.19
74230;BME280;62589;12.568;99.958;2023-04-16T11:25:28;100323.81;;;38.08;34.90
74230;BME280;62589;12.568;99.958;2023-04-16T11:27:55;100304.63;;;38.07;35.04
74230;BME280;62589;12.568;99.958;2023-04-16T11:30:35;100305.41;;;38.07;34.34
74230;BME280;62589;12.568;99.958;2023-04-16T11:33:09;100309.53;;;38.03;34.56
74230;BME280;62589;12.568;99.958;2023-04-16T11:35:37;100312.22;;;37.90;33.33
74230;BME280;62589;12.568;99.958;2023-04-16T11:38:08;100312.94;;;37.94;33.40
74230;BME280;62589;12.568;99.958;2023-04-16T11:40:34;100318.88;;;37.96;34.01
74230;BME280;62589;12.568;99.958;2023-04-16T11:43:12;100316.53;;;37.95;33.51
74230;BME280;62589;12.568;99.958;2023-04-16T11:45:56;100313.78;;;37.91;33.33
74230;BME280;62589;12.568;99.958;2023-04-16T11:48:23;100321.91;;;37.86;32.94
74230;BME280;62589;12.568;99.958;2023-04-16T11:50:56;100322.44;;;37.80;33.64
74230;BME280;62589;12.568;99.958;2023-04-16T11:53:23;100321.56;;;37.83;33.63
74230;BME280;62589;12.568;99.958;2023-04-16T11:55:50;100311.69;;;37.79;33.85
74230;BME280;62589;12.568;99.958;2023-04-16T11:58:17;100315.25;;;37.79;33.57
74230;BME280;62589;12.568;99.958;2023-04-16T12:00:44;100320.22;;;37.72;34.14
74230;BME280;62589;12.568;99.958;2023-04-16T12:03:11;100316.19;;;37.73;34.06
74230;BME280;62589;12.568;99.958;2023-04-16T12:05:39;100315.97;;;37.64;34.35
74230;BME280;62589;12.568;99.958;2023-04-16T12:08:10;100321.72;;;37.57;34.14
74230;BME280;62589;12.568;99.958;2023-04-16T12:10:52;100319.72;;;37.57;34.65
74230;BME280;62589;12.568;99.958;2023-04-16T12:13:19;100322.53;;;37.57;34.67
74230;BME280;62589;12.568;99.958;2023-04-16T12:15:48;100316.69;;;37.48;34.86
74230;BME280;62589;12.568;99.958;2023-04-16T12:18:16;100312.25;;;37.50;35.16
74230;BME280;62589;12.568;99.958;2023-04-16T12:20:43;100319.50;;;37.48;35.37
74230;BME280;62589;12.568;99.958;2023-04-16T12:23:25;100319.50;;;37.48;35.26
74230;BME280;62589;12.568;99.958;2023-04-16T12:25:52;100314.69;;;37.48;35.29
74230;BME280;62589;12.568;99.958;2023-04-16T12:28:31;100330.69;;;37.48;35.56
74230;BME280;62589;12.568;99.958;2023-04-16T12:30:58;100326.81;;;37.42;35.89
74230;BME280;62589;12.568;99.958;2023-04-16T12:33:25;100340.47;;;37.40;36.17
74230;BME280;62589;12.568;99.958;2023-04-16T12:35:51;100347.66;;;37.41;36.06
74230;BME280;62589;12.568;99.958;2023-04-16T12:38:18;100358.75;;;37.44;36.05
74230;BME280;62589;12.568;99.958;2023-04-16T12:40:45;100362.41;;;37.41;36.52
74230;BME280;62589;12.568;99.958;2023-04-16T12:43:11;100362.41;;;37.41;36.21
74230;BME280;62589;12.568;99.958;2023-04-16T12:45:39;100366.81;;;37.42;35.94
74230;BME280;62589;12.568;99.958;2023-04-16T12:48:05;100377.22;;;37.42;36.48
74230;BME280;62589;12.568;99.958;2023-04-16T12:50:32;100374.41;;;37.42;36.49
74230;BME280;62589;12.568;99.958;2023-04-16T12:52:59;100373.91;;;37.47;36.49
74230;BME280;62589;12.568;99.958;2023-04-16T12:55:25;100373.97;;;37.43;36.35
74230;BME280;62589;12.568;99.958;2023-04-16T12:57:51;100383.28;;;37.40;36.48
74230;BME280;62589;12.568;99.958;2023-04-16T13:00:19;100390.88;;;37.40;36.31
74230;BME280;62589;12.568;99.958;2023-04-16T13:02:45;100389.66;;;37.41;36.31